sensor_id;sensor_type;location;lat;lon;timestamp;P1;durP1;ratioP1;P2;durP2;ratioP2
31004;SDS011;17676;52.254;4.490;2022-09-09T00:00:35;8.27;;;3.42;;
31004;SDS011;17676;52.254;4.490;2022-09-09T00:03:05;5.60;;;2.97;;
31004;SDS011;17676;52.254;4.490;2022-09-09T00:08:07;8.35;;;4.28;;
31004;SDS011;17676;52.254;4.490;2022-09-09T00:10:36;8.18;;;4.00;;
31004;SDS011;17676;52.254;4.490;2022-09-09T00:15:41;5.25;;;4.70;;
31004;SDS011;17676;52.254;4.490;2022-09-09T00:20:40;10.52;;;5.43;;
31004;SDS011;17676;52.254;4.490;2022-09-09T00:23:12;8.80;;;5.60;;
31004;SDS011;17676;52.254;4.490;2022-09-09T00:28:19;14.77;;;6.50;;
31004;SDS011;17676;52.254;4.490;2022-09-09T00:30:45;7.90;;;6.47;;
31004;SDS011;17676;52.254;4.490;2022-09-09T00:33:13;11.18;;;6.88;;
31004;SDS011;17676;52.254;4.490;2022-09-09T00:36:14;10.57;;;7.28;;
31004;SDS011;17676;52.254;4.490;2022-09-09T00:38:35;10.25;;;6.50;;
31004;SDS011;17676;52.254;4.490;2022-09-09T00:41:06;11.95;;;7.32;;
31004;SDS011;17676;52.254;4.490;2022-09-09T00:43:38;12.15;;;7.55;;
31004;SDS011;17676;52.254;4.490;2022-09-09T00:51:11;10.30;;;7.47;;
31004;SDS011;17676;52.254;4.490;2022-09-09T00:53:56;13.45;;;8.57;;
31004;SDS011;17676;52.254;4.490;2022-09-09T00:56:25;8.93;;;8.10;;
31004;SDS011;17676;52.254;4.490;2022-09-09T00:58:59;9.00;;;7.90;;
31004;SDS011;17676;52.254;4.490;2022-09-09T01:01:25;16.00;;;8.45;;
31004;SDS011;17676;52.254;4.490;2022-09-09T01:06:20;14.43;;;9.18;;
31004;SDS011;17676;52.254;4.490;2022-09-09T01:16:54;13.68;;;10.93;;
31004;SDS011;17676;52.254;4.490;2022-09-09T01:19:27;14.30;;;11.90;;
31004;SDS011;17676;52.254;4.490;2022-09-09T01:22:02;17.27;;;13.57;;
31004;SDS011;17676;52.254;4.490;2022-09-09T01:27:13;18.05;;;15.30;;
31004;SDS011;17676;52.254;4.490;2022-09-09T01:29:40;18.88;;;16.15;;
31004;SDS011;17676;52.254;4.490;2022-09-09T01:34:49;21.40;;;17.27;;
31004;SDS011;17676;52.254;4.490;2022-09-09T01:37:15;25.17;;;18.25;;
31004;SDS011;17676;52.254;4.490;2022-09-09T01:39:41;21.33;;;17.08;;
31004;SDS011;17676;52.254;4.490;2022-09-09T01:42:09;20.77;;;16.58;;
31004;SDS011;17676;52.254;4.490;2022-09-09T01:44:35;17.50;;;15.27;;
31004;SDS011;17676;52.254;4.490;2022-09-09T01:47:03;21.55;;;13.35;;
31004;SDS011;17676;52.254;4.490;2022-09-09T01:49:29;16.05;;;13.18;;
31004;SDS011;17676;52.254;4.490;2022-09-09T01:51:56;17.55;;;13.13;;
31004;SDS011;17676;52.254;4.490;2022-09-09T01:54:24;18.52;;;14.13;;
31004;SDS011;17676;52.254;4.490;2022-09-09T01:57:10;16.50;;;12.85;;
31004;SDS011;17676;52.254;4.490;2022-09-09T02:02:11;13.48;;;11.82;;
31004;SDS011;17676;52.254;4.490;2022-09-09T02:04:43;19.15;;;12.63;;
31004;SDS011;17676;52.254;4.490;2022-09-09T02:07:14;14.95;;;13.35;;
31004;SDS011;17676;52.254;4.490;2022-09-09T02:09:44;18.85;;;13.13;;
31004;SDS011;17676;52.254;4.490;2022-09-09T02:12:13;15.88;;;13.80;;
31004;SDS011;17676;52.254;4.490;2022-09-09T02:14:41;19.77;;;12.23;;
31004;SDS011;17676;52.254;4.490;2022-09-09T02:17:11;17.30;;;14.18;;
31004;SDS011;17676;52.254;4.490;2022-09-09T02:19:42;21.38;;;15.90;;
31004;SDS011;17676;52.254;4.490;2022-09-09T02:22:11;17.83;;;13.85;;
31004;SDS011;17676;52.254;4.490;2022-09-09T02:24:40;20.15;;;15.82;;
31004;SDS011;17676;52.254;4.490;2022-09-09T02:27:06;20.27;;;16.63;;
31004;SDS011;17676;52.254;4.490;2022-09-09T02:29:34;20.80;;;15.90;;
31004;SDS011;17676;52.254;4.490;2022-09-09T02:32:01;19.20;;;17.17;;
31004;SDS011;17676;52.254;4.490;2022-09-09T02:34:31;19.35;;;16.38;;
31004;SDS011;17676;52.254;4.490;2022-09-09T02:36:59;19.70;;;17.38;;
31004;SDS011;17676;52.254;4.490;2022-09-09T02:39:25;20.17;;;17.15;;
31004;SDS011;17676;52.254;4.490;2022-09-09T02:41:51;20.50;;;17.00;;
31004;SDS011;17676;52.254;4.490;2022-09-09T02:44:18;20.17;;;17.75;;
31004;SDS011;17676;52.254;4.490;2022-09-09T02:46:51;19.88;;;15.43;;
31004;SDS011;17676;52.254;4.490;2022-09-09T02:49:25;19.90;;;16.67;;
31004;SDS011;17676;52.254;4.490;2022-09-09T02:52:13;17.63;;;15.80;;
31004;SDS011;17676;52.254;4.490;2022-09-09T02:54:41;22.15;;;16.67;;
31004;SDS011;17676;52.254;4.490;2022-09-09T02:59:33;17.40;;;15.50;;
31004;SDS011;17676;52.254;4.490;2022-09-09T03:01:59;17.20;;;15.45;;
31004;SDS011;17676;52.254;4.490;2022-09-09T03:04:25;17.83;;;15.25;;
31004;SDS011;17676;52.254;4.490;2022-09-09T03:06:50;19.58;;;15.15;;
31004;SDS011;17676;52.254;4.490;2022-09-09T03:09:16;18.15;;;15.30;;
31004;SDS011;17676;52.254;4.490;2022-09-09T03:11:41;14.63;;;13.20;;
31004;SDS011;17676;52.254;4.490;2022-09-09T03:14:07;17.05;;;11.85;;
31004;SDS011;17676;52.254;4.490;2022-09-09T03:16:34;19.40;;;12.35;;
31004;SDS011;17676;52.254;4.490;2022-09-09T03:19:00;18.65;;;13.18;;
31004;SDS011;17676;52.254;4.490;2022-09-09T03:21:26;17.63;;;12.15;;
31004;SDS011;17676;52.254;4.490;2022-09-09T03:23:52;13.23;;;11.57;;
31004;SDS011;17676;52.254;4.490;2022-09-09T03:26:17;16.65;;;11.07;;
31004;SDS011;17676;52.254;4.490;2022-09-09T03:28:43;11.65;;;10.25;;
31004;SDS011;17676;52.254;4.490;2022-09-09T03:31:09;15.15;;;10.23;;
31004;SDS011;17676;52.254;4.490;2022-09-09T03:33:38;12.38;;;9.45;;
31004;SDS011;17676;52.254;4.490;2022-09-09T03:36:09;11.02;;;9.13;;
31004;SDS011;17676;52.254;4.490;2022-09-09T03:38:34;13.02;;;9.57;;
31004;SDS011;17676;52.254;4.490;2022-09-09T03:40:59;12.00;;;8.13;;
31004;SDS011;17676;52.254;4.490;2022-09-09T03:43:26;13.68;;;8.25;;
31004;SDS011;17676;52.254;4.490;2022-09-09T03:45:55;13.00;;;8.68;;
31004;SDS011;17676;52.254;4.490;2022-09-09T03:48:24;12.73;;;8.20;;
31004;SDS011;17676;52.254;4.490;2022-09-09T03:50:50;15.68;;;8.35;;
31004;SDS011;17676;52.254;4.490;2022-09-09T03:53:17;10.52;;;7.95;;
31004;SDS011;17676;52.254;4.490;2022-09-09T03:55:45;11.65;;;8.85;;
31004;SDS011;17676;52.254;4.490;2022-09-09T03:58:14;15.80;;;9.43;;
31004;SDS011;17676;52.254;4.490;2022-09-09T04:00:41;10.15;;;8.75;;
31004;SDS011;17676;52.254;4.490;2022-09-09T04:03:10;11.85;;;8.52;;
31004;SDS011;17676;52.254;4.490;2022-09-09T04:05:35;12.90;;;9.13;;
31004;SDS011;17676;52.254;4.490;2022-09-09T04:08:05;13.85;;;8.95;;
31004;SDS011;17676;52.254;4.490;2022-09-09T04:10:30;17.08;;;9.27;;
31004;SDS011;17676;52.254;4.490;2022-09-09T04:12:56;14.05;;;9.48;;
31004;SDS011;17676;52.254;4.490;2022-09-09T04:15:22;13.65;;;9.93;;
31004;SDS011;17676;52.254;4.490;2022-09-09T04:17:50;15.32;;;10.52;;
31004;SDS011;17676;52.254;4.490;2022-09-09T04:20:16;17.92;;;10.77;;
31004;SDS011;17676;52.254;4.490;2022-09-09T04:22:42;16.00;;;9.57;;
31004;SDS011;17676;52.254;4.490;2022-09-09T04:25:07;14.00;;;9.27;;
31004;SDS011;17676;52.254;4.490;2022-09-09T04:27:32;13.18;;;10.63;;
31004;SDS011;17676;52.254;4.490;2022-09-09T04:29:58;12.52;;;9.90;;
31004;SDS011;17676;52.254;4.490;2022-09-09T04:32:24;14.52;;;10.30;;
31004;SDS011;17676;52.254;4.490;2022-09-09T04:34:53;14.57;;;10.10;;
31004;SDS011;17676;52.254;4.490;2022-09-09T04:37:18;12.32;;;10.38;;
31004;SDS011;17676;52.254;4.490;2022-09-09T04:39:44;11.25;;;10.05;;
31004;SDS011;17676;52.254;4.490;2022-09-09T04:42:10;14.05;;;9.23;;
31004;SDS011;17676;52.254;4.490;2022-09-09T04:44:37;11.73;;;9.35;;
31004;SDS011;17676;52.254;4.490;2022-09-09T04:47:06;14.55;;;10.32;;
31004;SDS011;17676;52.254;4.490;2022-09-09T04:49:31;14.50;;;10.05;;
31004;SDS011;17676;52.254;4.490;2022-09-09T04:51:57;14.55;;;10.50;;
31004;SDS011;17676;52.254;4.490;2022-09-09T04:54:22;14.25;;;9.85;;
31004;SDS011;17676;52.254;4.490;2022-09-09T04:56:49;14.55;;;9.73;;
31004;SDS011;17676;52.254;4.490;2022-09-09T04:59:15;12.57;;;9.98;;
31004;SDS011;17676;52.254;4.490;2022-09-09T05:01:41;11.55;;;9.50;;
31004;SDS011;17676;52.254;4.490;2022-09-09T05:04:06;12.27;;;9.73;;
31004;SDS011;17676;52.254;4.490;2022-09-09T05:06:31;11.23;;;8.85;;
31004;SDS011;17676;52.254;4.490;2022-09-09T05:08:57;10.77;;;8.65;;
31004;SDS011;17676;52.254;4.490;2022-09-09T05:11:24;15.32;;;8.30;;
31004;SDS011;17676;52.254;4.490;2022-09-09T05:13:50;15.13;;;9.45;;
31004;SDS011;17676;52.254;4.490;2022-09-09T05:16:16;11.27;;;9.15;;
31004;SDS011;17676;52.254;4.490;2022-09-09T05:18:42;10.95;;;7.95;;
31004;SDS011;17676;52.254;4.490;2022-09-09T05:21:08;11.55;;;7.60;;
31004;SDS011;17676;52.254;4.490;2022-09-09T05:23:34;13.00;;;8.38;;
31004;SDS011;17676;52.254;4.490;2022-09-09T05:25:59;10.32;;;6.85;;
31004;SDS011;17676;52.254;4.490;2022-09-09T05:28:25;11.82;;;7.25;;
31004;SDS011;17676;52.254;4.490;2022-09-09T05:30:58;10.10;;;6.38;;
31004;SDS011;17676;52.254;4.490;2022-09-09T05:33:24;8.80;;;6.20;;
31004;SDS011;17676;52.254;4.490;2022-09-09T05:36:01;9.90;;;5.68;;
31004;SDS011;17676;52.254;4.490;2022-09-09T05:38:27;9.73;;;5.78;;
31004;SDS011;17676;52.254;4.490;2022-09-09T05:40:53;9.63;;;4.80;;
31004;SDS011;17676;52.254;4.490;2022-09-09T05:43:21;8.68;;;5.22;;
31004;SDS011;17676;52.254;4.490;2022-09-09T05:45:47;7.47;;;4.90;;
31004;SDS011;17676;52.254;4.490;2022-09-09T05:48:12;9.15;;;4.82;;
31004;SDS011;17676;52.254;4.490;2022-09-09T05:50:38;8.55;;;4.03;;
31004;SDS011;17676;52.254;4.490;2022-09-09T05:53:04;6.78;;;3.65;;
31004;SDS011;17676;52.254;4.490;2022-09-09T05:55:29;9.70;;;3.88;;
31004;SDS011;17676;52.254;4.490;2022-09-09T05:57:55;7.60;;;4.20;;
31004;SDS011;17676;52.254;4.490;2022-09-09T06:00:21;9.60;;;3.40;;
31004;SDS011;17676;52.254;4.490;2022-09-09T06:02:50;8.20;;;3.88;;
31004;SDS011;17676;52.254;4.490;2022-09-09T06:05:17;10.65;;;3.78;;
31004;SDS011;17676;52.254;4.490;2022-09-09T06:07:43;6.88;;;3.17;;
31004;SDS011;17676;52.254;4.490;2022-09-09T06:10:09;11.23;;;3.50;;
31004;SDS011;17676;52.254;4.490;2022-09-09T06:12:35;6.35;;;2.88;;
31004;SDS011;17676;52.254;4.490;2022-09-09T06:15:01;8.55;;;3.03;;
31004;SDS011;17676;52.254;4.490;2022-09-09T06:17:30;8.98;;;2.83;;
31004;SDS011;17676;52.254;4.490;2022-09-09T06:19:55;7.68;;;3.00;;
31004;SDS011;17676;52.254;4.490;2022-09-09T06:22:20;5.25;;;2.50;;
31004;SDS011;17676;52.254;4.490;2022-09-09T06:24:46;7.38;;;3.00;;
31004;SDS011;17676;52.254;4.490;2022-09-09T06:27:11;7.13;;;2.25;;
31004;SDS011;17676;52.254;4.490;2022-09-09T06:29:38;8.02;;;3.05;;
31004;SDS011;17676;52.254;4.490;2022-09-09T06:32:04;9.25;;;2.90;;
31004;SDS011;17676;52.254;4.490;2022-09-09T06:34:29;10.35;;;3.55;;
31004;SDS011;17676;52.254;4.490;2022-09-09T06:36:55;9.05;;;3.20;;
31004;SDS011;17676;52.254;4.490;2022-09-09T06:39:22;8.10;;;3.08;;
31004;SDS011;17676;52.254;4.490;2022-09-09T06:41:50;10.63;;;2.63;;
31004;SDS011;17676;52.254;4.490;2022-09-09T06:44:18;6.65;;;2.60;;
31004;SDS011;17676;52.254;4.490;2022-09-09T06:46:43;10.80;;;3.05;;
31004;SDS011;17676;52.254;4.490;2022-09-09T06:49:09;8.52;;;2.22;;
31004;SDS011;17676;52.254;4.490;2022-09-09T06:51:35;13.95;;;3.10;;
31004;SDS011;17676;52.254;4.490;2022-09-09T06:54:01;6.68;;;2.78;;
31004;SDS011;17676;52.254;4.490;2022-09-09T06:58:53;10.52;;;3.33;;
31004;SDS011;17676;52.254;4.490;2022-09-09T07:01:20;9.50;;;2.70;;
31004;SDS011;17676;52.254;4.490;2022-09-09T07:03:47;7.35;;;2.85;;
31004;SDS011;17676;52.254;4.490;2022-09-09T07:06:20;11.18;;;3.38;;
31004;SDS011;17676;52.254;4.490;2022-09-09T07:08:49;9.20;;;3.75;;
31004;SDS011;17676;52.254;4.490;2022-09-09T07:11:15;11.02;;;3.90;;
31004;SDS011;17676;52.254;4.490;2022-09-09T07:13:40;11.68;;;3.95;;
31004;SDS011;17676;52.254;4.490;2022-09-09T07:16:08;10.13;;;4.05;;
31004;SDS011;17676;52.254;4.490;2022-09-09T07:18:34;11.65;;;4.85;;
31004;SDS011;17676;52.254;4.490;2022-09-09T07:20:59;10.90;;;4.30;;
31004;SDS011;17676;52.254;4.490;2022-09-09T07:23:26;10.40;;;3.90;;
31004;SDS011;17676;52.254;4.490;2022-09-09T07:25:51;10.25;;;4.05;;
31004;SDS011;17676;52.254;4.490;2022-09-09T07:28:17;10.65;;;3.92;;
31004;SDS011;17676;52.254;4.490;2022-09-09T07:30:43;9.85;;;4.10;;
31004;SDS011;17676;52.254;4.490;2022-09-09T07:33:08;13.52;;;4.15;;
31004;SDS011;17676;52.254;4.490;2022-09-09T07:35:35;9.10;;;3.20;;
31004;SDS011;17676;52.254;4.490;2022-09-09T07:38:02;7.90;;;3.13;;
31004;SDS011;17676;52.254;4.490;2022-09-09T07:40:31;10.02;;;4.10;;
31004;SDS011;17676;52.254;4.490;2022-09-09T07:42:56;10.80;;;4.15;;
31004;SDS011;17676;52.254;4.490;2022-09-09T07:45:22;10.05;;;3.85;;
31004;SDS011;17676;52.254;4.490;2022-09-09T07:47:47;8.05;;;3.70;;
31004;SDS011;17676;52.254;4.490;2022-09-09T07:53:34;10.55;;;4.10;;
31004;SDS011;17676;52.254;4.490;2022-09-09T07:56:04;8.48;;;4.05;;
31004;SDS011;17676;52.254;4.490;2022-09-09T07:58:30;9.63;;;3.33;;
31004;SDS011;17676;52.254;4.490;2022-09-09T08:00:58;10.68;;;3.63;;
31004;SDS011;17676;52.254;4.490;2022-09-09T08:03:23;7.20;;;3.40;;
31004;SDS011;17676;52.254;4.490;2022-09-09T08:05:49;7.82;;;3.60;;
31004;SDS011;17676;52.254;4.490;2022-09-09T08:08:14;10.90;;;3.80;;
31004;SDS011;17676;52.254;4.490;2022-09-09T08:10:41;12.98;;;3.42;;
31004;SDS011;17676;52.254;4.490;2022-09-09T08:13:06;11.93;;;3.53;;
31004;SDS011;17676;52.254;4.490;2022-09-09T08:15:33;13.73;;;3.70;;
31004;SDS011;17676;52.254;4.490;2022-09-09T08:17:59;11.63;;;3.40;;
31004;SDS011;17676;52.254;4.490;2022-09-09T08:20:24;11.05;;;3.30;;
31004;SDS011;17676;52.254;4.490;2022-09-09T08:22:50;9.45;;;3.63;;
31004;SDS011;17676;52.254;4.490;2022-09-09T08:25:15;9.13;;;3.40;;
31004;SDS011;17676;52.254;4.490;2022-09-09T08:27:41;9.95;;;3.13;;
31004;SDS011;17676;52.254;4.490;2022-09-09T08:30:06;9.68;;;3.25;;
31004;SDS011;17676;52.254;4.490;2022-09-09T08:32:32;13.85;;;3.63;;
31004;SDS011;17676;52.254;4.490;2022-09-09T08:34:57;9.98;;;3.38;;
31004;SDS011;17676;52.254;4.490;2022-09-09T08:37:22;8.57;;;2.85;;
31004;SDS011;17676;52.254;4.490;2022-09-09T08:39:48;6.05;;;2.13;;
31004;SDS011;17676;52.254;4.490;2022-09-09T08:44:48;11.30;;;2.20;;
31004;SDS011;17676;52.254;4.490;2022-09-09T08:49:58;11.65;;;2.97;;
31004;SDS011;17676;52.254;4.490;2022-09-09T08:52:28;6.53;;;2.15;;
31004;SDS011;17676;52.254;4.490;2022-09-09T08:54:58;6.18;;;2.25;;
31004;SDS011;17676;52.254;4.490;2022-09-09T08:57:29;8.27;;;2.20;;
31004;SDS011;17676;52.254;4.490;2022-09-09T08:59:56;5.88;;;2.50;;
31004;SDS011;17676;52.254;4.490;2022-09-09T09:03:14;7.88;;;2.22;;
31004;SDS011;17676;52.254;4.490;2022-09-09T09:05:14;7.05;;;2.28;;
31004;SDS011;17676;52.254;4.490;2022-09-09T09:12:43;7.47;;;2.13;;
31004;SDS011;17676;52.254;4.490;2022-09-09T09:15:24;6.82;;;1.30;;
31004;SDS011;17676;52.254;4.490;2022-09-09T09:17:50;5.80;;;2.08;;
31004;SDS011;17676;52.254;4.490;2022-09-09T09:20:16;8.57;;;1.98;;
31004;SDS011;17676;52.254;4.490;2022-09-09T09:22:48;11.15;;;2.10;;
31004;SDS011;17676;52.254;4.490;2022-09-09T09:25:20;8.48;;;2.58;;
31004;SDS011;17676;52.254;4.490;2022-09-09T09:30:21;11.80;;;3.10;;
31004;SDS011;17676;52.254;4.490;2022-09-09T09:32:54;8.18;;;3.15;;
31004;SDS011;17676;52.254;4.490;2022-09-09T09:35:21;9.50;;;3.40;;
31004;SDS011;17676;52.254;4.490;2022-09-09T09:37:46;9.02;;;3.03;;
31004;SDS011;17676;52.254;4.490;2022-09-09T09:40:13;7.60;;;2.75;;
31004;SDS011;17676;52.254;4.490;2022-09-09T09:48:00;9.63;;;3.95;;
31004;SDS011;17676;52.254;4.490;2022-09-09T09:50:27;9.30;;;4.07;;
31004;SDS011;17676;52.254;4.490;2022-09-09T09:53:04;10.63;;;4.28;;
31004;SDS011;17676;52.254;4.490;2022-09-09T09:55:31;11.52;;;4.30;;
31004;SDS011;17676;52.254;4.490;2022-09-09T09:58:02;10.98;;;4.55;;
31004;SDS011;17676;52.254;4.490;2022-09-09T10:00:28;8.25;;;4.40;;
31004;SDS011;17676;52.254;4.490;2022-09-09T10:02:54;10.95;;;4.57;;
31004;SDS011;17676;52.254;4.490;2022-09-09T10:05:23;11.25;;;4.57;;
31004;SDS011;17676;52.254;4.490;2022-09-09T10:10:36;13.48;;;4.38;;
31004;SDS011;17676;52.254;4.490;2022-09-09T10:18:20;7.85;;;3.50;;
31004;SDS011;17676;52.254;4.490;2022-09-09T10:20:56;12.18;;;3.70;;
31004;SDS011;17676;52.254;4.490;2022-09-09T10:23:29;8.13;;;3.78;;
31004;SDS011;17676;52.254;4.490;2022-09-09T10:31:17;7.35;;;4.10;;
31004;SDS011;17676;52.254;4.490;2022-09-09T10:33:49;11.07;;;4.50;;
31004;SDS011;17676;52.254;4.490;2022-09-09T10:38:53;7.78;;;3.83;;
31004;SDS011;17676;52.254;4.490;2022-09-09T10:46:58;7.00;;;4.13;;
31004;SDS011;17676;52.254;4.490;2022-09-09T10:49:44;11.48;;;4.55;;
31004;SDS011;17676;52.254;4.490;2022-09-09T10:52:20;10.43;;;4.63;;
31004;SDS011;17676;52.254;4.490;2022-09-09T10:59:46;9.63;;;2.88;;
31004;SDS011;17676;52.254;4.490;2022-09-09T11:02:21;5.30;;;2.00;;
31004;SDS011;17676;52.254;4.490;2022-09-09T11:04:58;9.43;;;2.95;;
31004;SDS011;17676;52.254;4.490;2022-09-09T11:07:37;8.77;;;2.53;;
31004;SDS011;17676;52.254;4.490;2022-09-09T11:10:06;6.35;;;2.83;;
31004;SDS011;17676;52.254;4.490;2022-09-09T11:12:32;9.40;;;2.85;;
31004;SDS011;17676;52.254;4.490;2022-09-09T11:15:25;5.80;;;2.38;;
31004;SDS011;17676;52.254;4.490;2022-09-09T11:17:49;5.97;;;2.00;;
31004;SDS011;17676;52.254;4.490;2022-09-09T11:20:16;4.80;;;2.40;;
31004;SDS011;17676;52.254;4.490;2022-09-09T11:22:55;4.65;;;1.60;;
31004;SDS011;17676;52.254;4.490;2022-09-09T11:25:23;5.53;;;2.10;;
31004;SDS011;17676;52.254;4.490;2022-09-09T11:28:07;3.72;;;1.45;;
31004;SDS011;17676;52.254;4.490;2022-09-09T11:35:55;3.17;;;1.10;;
31004;SDS011;17676;52.254;4.490;2022-09-09T11:40:55;3.78;;;1.17;;
31004;SDS011;17676;52.254;4.490;2022-09-09T11:43:23;7.20;;;1.33;;
31004;SDS011;17676;52.254;4.490;2022-09-09T11:45:52;2.55;;;0.80;;
31004;SDS011;17676;52.254;4.490;2022-09-09T11:48:23;2.38;;;0.90;;
31004;SDS011;17676;52.254;4.490;2022-09-09T11:50:57;2.08;;;0.60;;
31004;SDS011;17676;52.254;4.490;2022-09-09T11:53:23;2.63;;;0.98;;
31004;SDS011;17676;52.254;4.490;2022-09-09T11:56:02;4.68;;;0.80;;
31004;SDS011;17676;52.254;4.490;2022-09-09T11:58:29;2.83;;;0.73;;
31004;SDS011;17676;52.254;4.490;2022-09-09T12:00:57;4.45;;;0.68;;
31004;SDS011;17676;52.254;4.490;2022-09-09T12:06:07;4.47;;;0.93;;
31004;SDS011;17676;52.254;4.490;2022-09-09T12:08:34;2.60;;;0.90;;
31004;SDS011;17676;52.254;4.490;2022-09-09T12:11:01;4.13;;;0.93;;
31004;SDS011;17676;52.254;4.490;2022-09-09T12:13:28;2.95;;;0.90;;
31004;SDS011;17676;52.254;4.490;2022-09-09T12:15:57;7.32;;;1.63;;
31004;SDS011;17676;52.254;4.490;2022-09-09T12:18:31;6.47;;;1.20;;
31004;SDS011;17676;52.254;4.490;2022-09-09T12:23:57;5.60;;;1.70;;
31004;SDS011;17676;52.254;4.490;2022-09-09T12:26:36;4.15;;;1.92;;
31004;SDS011;17676;52.254;4.490;2022-09-09T12:31:46;9.95;;;3.10;;
31004;SDS011;17676;52.254;4.490;2022-09-09T12:36:38;8.05;;;3.17;;
31004;SDS011;17676;52.254;4.490;2022-09-09T12:39:18;5.13;;;2.30;;
31004;SDS011;17676;52.254;4.490;2022-09-09T12:41:51;3.97;;;2.20;;
31004;SDS011;17676;52.254;4.490;2022-09-09T12:44:21;4.03;;;1.60;;
31004;SDS011;17676;52.254;4.490;2022-09-09T12:46:46;3.30;;;1.20;;
31004;SDS011;17676;52.254;4.490;2022-09-09T12:52:09;4.43;;;1.38;;
31004;SDS011;17676;52.254;4.490;2022-09-09T12:54:37;3.50;;;1.00;;
31004;SDS011;17676;52.254;4.490;2022-09-09T12:57:10;4.15;;;1.17;;
31004;SDS011;17676;52.254;4.490;2022-09-09T12:59:38;3.42;;;1.20;;
31004;SDS011;17676;52.254;4.490;2022-09-09T13:02:11;3.78;;;1.58;;
31004;SDS011;17676;52.254;4.490;2022-09-09T13:04:36;3.92;;;1.20;;
31004;SDS011;17676;52.254;4.490;2022-09-09T13:07:05;4.00;;;0.80;;
31004;SDS011;17676;52.254;4.490;2022-09-09T13:09:31;2.70;;;0.70;;
31004;SDS011;17676;52.254;4.490;2022-09-09T13:11:57;4.70;;;0.98;;
31004;SDS011;17676;52.254;4.490;2022-09-09T13:14:28;2.72;;;0.85;;
31004;SDS011;17676;52.254;4.490;2022-09-09T13:16:54;3.20;;;0.98;;
31004;SDS011;17676;52.254;4.490;2022-09-09T13:19:20;4.70;;;0.90;;
31004;SDS011;17676;52.254;4.490;2022-09-09T13:21:46;3.97;;;1.05;;
31004;SDS011;17676;52.254;4.490;2022-09-09T13:26:56;5.43;;;0.50;;
31004;SDS011;17676;52.254;4.490;2022-09-09T13:29:21;0.77;;;0.30;;
31004;SDS011;17676;52.254;4.490;2022-09-09T13:31:46;2.05;;;0.50;;
31004;SDS011;17676;52.254;4.490;2022-09-09T13:34:26;1.88;;;0.45;;
31004;SDS011;17676;52.254;4.490;2022-09-09T13:37:02;2.83;;;0.60;;
31004;SDS011;17676;52.254;4.490;2022-09-09T13:39:30;2.25;;;0.52;;
31004;SDS011;17676;52.254;4.490;2022-09-09T13:41:57;0.93;;;0.30;;
31004;SDS011;17676;52.254;4.490;2022-09-09T13:44:27;2.85;;;0.40;;
31004;SDS011;17676;52.254;4.490;2022-09-09T13:47:03;2.22;;;0.43;;
31004;SDS011;17676;52.254;4.490;2022-09-09T13:49:29;0.85;;;0.30;;
31004;SDS011;17676;52.254;4.490;2022-09-09T13:54:53;1.15;;;0.30;;
31004;SDS011;17676;52.254;4.490;2022-09-09T13:57:29;3.35;;;0.47;;
31004;SDS011;17676;52.254;4.490;2022-09-09T13:59:58;2.67;;;0.40;;
31004;SDS011;17676;52.254;4.490;2022-09-09T14:02:33;1.88;;;0.50;;
31004;SDS011;17676;52.254;4.490;2022-09-09T14:05:00;3.40;;;0.80;;
31004;SDS011;17676;52.254;4.490;2022-09-09T14:07:27;2.65;;;0.50;;
31004;SDS011;17676;52.254;4.490;2022-09-09T14:09:53;5.15;;;0.85;;
31004;SDS011;17676;52.254;4.490;2022-09-09T14:12:19;9.07;;;0.98;;
31004;SDS011;17676;52.254;4.490;2022-09-09T14:14:46;5.40;;;0.85;;
31004;SDS011;17676;52.254;4.490;2022-09-09T14:17:13;3.60;;;0.35;;
31004;SDS011;17676;52.254;4.490;2022-09-09T14:19:45;5.45;;;0.55;;
31004;SDS011;17676;52.254;4.490;2022-09-09T14:22:11;2.80;;;0.30;;
31004;SDS011;17676;52.254;4.490;2022-09-09T14:24:37;4.28;;;0.50;;
31004;SDS011;17676;52.254;4.490;2022-09-09T14:27:03;2.88;;;0.40;;
31004;SDS011;17676;52.254;4.490;2022-09-09T14:29:29;5.05;;;0.40;;
31004;SDS011;17676;52.254;4.490;2022-09-09T14:31:57;10.52;;;0.93;;
31004;SDS011;17676;52.254;4.490;2022-09-09T14:37:30;7.05;;;1.25;;
31004;SDS011;17676;52.254;4.490;2022-09-09T14:39:56;10.60;;;1.20;;
31004;SDS011;17676;52.254;4.490;2022-09-09T14:42:25;8.32;;;0.82;;
31004;SDS011;17676;52.254;4.490;2022-09-09T14:44:51;5.82;;;0.70;;
31004;SDS011;17676;52.254;4.490;2022-09-09T14:47:17;4.15;;;0.40;;
31004;SDS011;17676;52.254;4.490;2022-09-09T14:49:42;4.05;;;1.02;;
31004;SDS011;17676;52.254;4.490;2022-09-09T14:52:08;4.70;;;0.80;;
31004;SDS011;17676;52.254;4.490;2022-09-09T14:54:34;8.20;;;0.88;;
31004;SDS011;17676;52.254;4.490;2022-09-09T14:56:59;7.13;;;0.95;;
31004;SDS011;17676;52.254;4.490;2022-09-09T14:59:24;4.63;;;0.77;;
31004;SDS011;17676;52.254;4.490;2022-09-09T15:01:50;4.82;;;0.90;;
31004;SDS011;17676;52.254;4.490;2022-09-09T15:04:15;4.72;;;0.65;;
31004;SDS011;17676;52.254;4.490;2022-09-09T15:06:41;6.93;;;1.38;;
31004;SDS011;17676;52.254;4.490;2022-09-09T15:09:09;6.55;;;0.98;;
31004;SDS011;17676;52.254;4.490;2022-09-09T15:11:36;5.50;;;1.25;;
31004;SDS011;17676;52.254;4.490;2022-09-09T15:14:05;7.60;;;0.88;;
31004;SDS011;17676;52.254;4.490;2022-09-09T15:16:34;11.43;;;0.80;;
31004;SDS011;17676;52.254;4.490;2022-09-09T15:19:02;8.18;;;0.70;;
31004;SDS011;17676;52.254;4.490;2022-09-09T15:24:24;6.00;;;0.90;;
31004;SDS011;17676;52.254;4.490;2022-09-09T15:26:50;7.75;;;0.70;;
31004;SDS011;17676;52.254;4.490;2022-09-09T15:29:16;14.63;;;1.20;;
31004;SDS011;17676;52.254;4.490;2022-09-09T15:31:41;10.57;;;1.40;;
31004;SDS011;17676;52.254;4.490;2022-09-09T15:34:06;10.73;;;1.65;;
31004;SDS011;17676;52.254;4.490;2022-09-09T15:36:33;15.27;;;1.58;;
31004;SDS011;17676;52.254;4.490;2022-09-09T15:38:59;12.75;;;1.35;;
31004;SDS011;17676;52.254;4.490;2022-09-09T15:41:25;9.75;;;1.50;;
31004;SDS011;17676;52.254;4.490;2022-09-09T15:43:51;8.93;;;1.10;;
31004;SDS011;17676;52.254;4.490;2022-09-09T15:48:43;6.55;;;1.35;;
31004;SDS011;17676;52.254;4.490;2022-09-09T15:51:09;6.93;;;1.08;;
31004;SDS011;17676;52.254;4.490;2022-09-09T15:53:35;3.40;;;1.08;;
31004;SDS011;17676;52.254;4.490;2022-09-09T15:56:00;9.15;;;1.17;;
31004;SDS011;17676;52.254;4.490;2022-09-09T15:58:29;5.40;;;0.93;;
31004;SDS011;17676;52.254;4.490;2022-09-09T16:01:01;7.55;;;1.20;;
31004;SDS011;17676;52.254;4.490;2022-09-09T16:03:26;8.00;;;1.40;;
31004;SDS011;17676;52.254;4.490;2022-09-09T16:05:51;5.70;;;0.98;;
31004;SDS011;17676;52.254;4.490;2022-09-09T16:08:16;4.50;;;0.70;;
31004;SDS011;17676;52.254;4.490;2022-09-09T16:10:43;7.97;;;1.08;;
31004;SDS011;17676;52.254;4.490;2022-09-09T16:13:09;5.07;;;0.68;;
31004;SDS011;17676;52.254;4.490;2022-09-09T16:15:34;7.10;;;1.17;;
31004;SDS011;17676;52.254;4.490;2022-09-09T16:17:59;5.18;;;0.93;;
31004;SDS011;17676;52.254;4.490;2022-09-09T16:20:24;5.13;;;0.80;;
31004;SDS011;17676;52.254;4.490;2022-09-09T16:22:50;6.53;;;1.80;;
31004;SDS011;17676;52.254;4.490;2022-09-09T16:25:17;5.80;;;1.05;;
31004;SDS011;17676;52.254;4.490;2022-09-09T16:27:43;10.45;;;1.63;;
31004;SDS011;17676;52.254;4.490;2022-09-09T16:30:09;7.90;;;1.15;;
31004;SDS011;17676;52.254;4.490;2022-09-09T16:32:35;7.18;;;0.80;;
31004;SDS011;17676;52.254;4.490;2022-09-09T16:35:00;4.25;;;0.63;;
31004;SDS011;17676;52.254;4.490;2022-09-09T16:37:26;5.40;;;0.80;;
31004;SDS011;17676;52.254;4.490;2022-09-09T16:39:52;8.70;;;0.88;;
31004;SDS011;17676;52.254;4.490;2022-09-09T16:42:19;11.13;;;1.58;;
31004;SDS011;17676;52.254;4.490;2022-09-09T16:44:45;14.13;;;1.20;;